createdAt,value
2023-10-10T00:02:19.487Z,1.85
2023-10-10T00:04:53.067Z,1.83
2023-10-10T00:07:20.325Z,2.08
2023-10-10T00:09:47.224Z,1.63
2023-10-10T00:12:18.321Z,1.58
2023-10-10T00:14:51.220Z,1.38
2023-10-10T00:17:19.203Z,1.60
2023-10-10T00:19:55.366Z,1.30
2023-10-10T00:22:34.894Z,1.30
2023-10-10T00:25:06.089Z,1.50
2023-10-10T00:27:33.864Z,1.60
2023-10-10T00:30:01.533Z,1.30
2023-10-10T00:32:29.950Z,1.23
2023-10-10T00:34:57.180Z,1.60
2023-10-10T00:37:27.081Z,1.40
2023-10-10T00:39:53.979Z,1.63
2023-10-10T00:42:21.731Z,1.20
2023-10-10T00:44:49.399Z,1.48
2023-10-10T00:47:27.598Z,1.75
2023-10-10T00:49:54.728Z,1.83
2023-10-10T00:52:21.550Z,2.17
2023-10-10T00:54:48.481Z,2.10
2023-10-10T00:57:15.805Z,1.65
2023-10-10T00:59:46.068Z,2.22
2023-10-10T01:02:14.210Z,1.70
2023-10-10T01:04:49.581Z,1.55
2023-10-10T01:07:20.331Z,1.55
2023-10-10T01:10:09.003Z,1.55
2023-10-10T01:12:40.607Z,1.90
2023-10-10T01:15:14.320Z,1.88
2023-10-10T01:17:42.104Z,1.63
2023-10-10T01:20:35.373Z,1.60
2023-10-10T01:23:03.562Z,1.55
2023-10-10T01:25:36.245Z,1.73
2023-10-10T01:28:07.003Z,1.88
2023-10-10T01:30:58.847Z,2.13
2023-10-10T01:33:37.490Z,1.58
2023-10-10T01:36:12.744Z,1.83
2023-10-10T01:38:57.792Z,1.70
2023-10-10T01:41:32.316Z,1.27
2023-10-10T01:44:13.921Z,1.70
2023-10-10T01:46:41.987Z,1.90
2023-10-10T01:49:16.040Z,1.42
2023-10-10T01:51:45.701Z,2.28
2023-10-10T01:54:17.178Z,1.48
2023-10-10T01:56:44.115Z,1.50
2023-10-10T01:59:15.064Z,1.77
2023-10-10T02:01:45.196Z,1.98
2023-10-10T02:04:12.021Z,1.77
2023-10-10T02:06:41.645Z,2.13
2023-10-10T02:09:20.515Z,1.38
2023-10-10T02:11:56.214Z,1.90
2023-10-10T02:14:31.900Z,1.63
2023-10-10T02:17:08.079Z,1.67
2023-10-10T02:19:41.061Z,1.92
2023-10-10T02:22:20.722Z,1.95
2023-10-10T02:24:50.300Z,1.40
2023-10-10T02:27:23.561Z,1.58
2023-10-10T02:29:51.123Z,1.52
2023-10-10T02:32:20.629Z,1.98
2023-10-10T02:35:06.331Z,1.65
2023-10-10T02:37:59.298Z,1.13
2023-10-10T02:40:32.322Z,1.50
2023-10-10T02:43:17.394Z,1.30
2023-10-10T02:45:46.362Z,1.17
2023-10-10T02:48:21.612Z,1.80
2023-10-10T02:50:52.712Z,1.48
2023-10-10T02:53:20.930Z,1.27
2023-10-10T02:55:53.611Z,1.40
2023-10-10T02:58:23.264Z,1.67
2023-10-10T03:00:50.942Z,1.83
2023-10-10T03:03:23.139Z,1.90
2023-10-10T03:05:52.859Z,1.35
2023-10-10T03:08:35.812Z,1.38
2023-10-10T03:11:03.579Z,1.48
2023-10-10T03:13:30.901Z,1.20
2023-10-10T03:16:12.098Z,2.00
2023-10-10T03:18:44.758Z,1.83
2023-10-10T03:21:20.033Z,2.10
2023-10-10T03:23:57.423Z,1.58
2023-10-10T03:26:53.492Z,1.63
2023-10-10T03:29:28.753Z,1.55
2023-10-10T03:32:14.092Z,1.67
2023-10-10T03:34:55.924Z,1.13
2023-10-10T03:37:42.153Z,1.58
2023-10-10T03:40:28.506Z,1.50
2023-10-10T03:43:13.744Z,1.65
2023-10-10T03:46:01.951Z,1.60
2023-10-10T03:48:47.244Z,1.48
2023-10-10T03:51:32.419Z,1.23
2023-10-10T03:54:17.368Z,1.88
2023-10-10T03:57:02.725Z,1.63
2023-10-10T04:00:01.483Z,1.63
2023-10-10T04:02:46.602Z,1.58
2023-10-10T04:05:31.816Z,1.88
2023-10-10T04:08:17.246Z,2.63
2023-10-10T04:11:06.017Z,1.77
2023-10-10T04:13:51.140Z,1.73
2023-10-10T04:16:36.592Z,1.95
2023-10-10T04:19:21.720Z,1.50
2023-10-10T04:22:11.251Z,1.83
2023-10-10T04:25:04.447Z,1.80
2023-10-10T04:27:49.854Z,1.63
2023-10-10T04:30:35.033Z,1.60
2023-10-10T04:33:20.449Z,1.95
2023-10-10T04:36:05.898Z,1.20
2023-10-10T04:38:51.136Z,1.60
2023-10-10T04:41:38.100Z,1.48
2023-10-10T04:44:23.353Z,1.70
2023-10-10T04:47:08.979Z,1.42
2023-10-10T04:49:54.311Z,1.55
2023-10-10T04:52:39.567Z,1.50
2023-10-10T04:55:24.925Z,1.30
2023-10-10T04:58:09.833Z,2.17
2023-10-10T05:00:55.349Z,1.73
2023-10-10T05:03:40.377Z,1.40
2023-10-10T05:06:25.648Z,1.70
2023-10-10T05:09:10.944Z,1.60
2023-10-10T05:11:56.093Z,1.85
2023-10-10T05:14:41.451Z,1.58
2023-10-10T05:17:26.963Z,1.65
2023-10-10T05:20:12.189Z,1.35
2023-10-10T05:23:17.428Z,1.50
2023-10-10T05:25:44.188Z,1.83
2023-10-10T05:28:12.113Z,1.40
2023-10-10T05:30:44.089Z,1.83
2023-10-10T05:33:11.189Z,1.50
2023-10-10T05:35:38.800Z,2.20
2023-10-10T05:38:06.178Z,1.45
2023-10-10T05:40:34.862Z,1.08
2023-10-10T05:43:04.284Z,1.60
2023-10-10T05:45:31.708Z,1.50
2023-10-10T05:47:59.248Z,3.17
2023-10-10T05:50:26.176Z,3.08
2023-10-10T05:52:53.069Z,3.00
2023-10-10T05:55:19.815Z,1.92
2023-10-10T05:57:47.293Z,2.25
2023-10-10T06:00:15.226Z,2.35
2023-10-10T06:02:46.970Z,1.67
2023-10-10T06:05:16.941Z,1.85
2023-10-10T06:07:46.612Z,1.90
2023-10-10T06:10:17.581Z,1.98
2023-10-10T06:12:44.992Z,2.10
2023-10-10T06:15:13.004Z,2.53
2023-10-10T06:17:40.844Z,2.55
2023-10-10T06:20:08.304Z,4.00
2023-10-10T06:22:35.175Z,2.95
2023-10-10T06:25:03.135Z,2.40
2023-10-10T06:27:38.058Z,2.75
2023-10-10T06:30:06.474Z,2.00
2023-10-10T06:32:33.391Z,2.40
2023-10-10T06:35:25.893Z,2.30
2023-10-10T06:37:55.834Z,2.63
2023-10-10T06:40:31.346Z,2.60
2023-10-10T06:43:00.950Z,3.35
2023-10-10T06:45:36.770Z,1.95
2023-10-10T06:48:03.822Z,3.17
2023-10-10T06:50:33.523Z,2.67
2023-10-10T06:53:01.818Z,2.03
2023-10-10T06:55:38.140Z,1.60
2023-10-10T06:58:06.647Z,2.20
2023-10-10T07:00:43.889Z,1.92
2023-10-10T07:03:11.548Z,2.03
2023-10-10T07:05:41.013Z,1.70
2023-10-10T07:08:14.495Z,2.25
2023-10-10T07:10:44.461Z,2.23
2023-10-10T07:13:15.582Z,1.98
2023-10-10T07:15:43.160Z,1.70
2023-10-10T07:18:11.142Z,1.88
2023-10-10T07:20:56.797Z,1.40
2023-10-10T07:23:23.999Z,2.50
2023-10-10T07:26:00.534Z,3.42
2023-10-10T07:28:28.422Z,2.35
2023-10-10T07:30:55.825Z,2.50
2023-10-10T07:33:31.142Z,3.00
2023-10-10T07:35:58.212Z,2.20
2023-10-10T07:38:31.734Z,2.28
2023-10-10T07:40:58.501Z,2.38
2023-10-10T07:43:28.625Z,2.17
2023-10-10T07:45:58.202Z,2.78
2023-10-10T07:48:27.670Z,2.10
2023-10-10T07:51:07.276Z,2.20
2023-10-10T07:53:42.182Z,2.63
2023-10-10T07:56:09.035Z,2.88
2023-10-10T07:58:51.931Z,2.00
2023-10-10T08:01:19.828Z,2.85
2023-10-10T08:03:47.192Z,2.75
2023-10-10T08:06:18.406Z,2.47
2023-10-10T08:08:46.242Z,2.08
2023-10-10T08:11:25.948Z,2.67
2023-10-10T08:13:52.738Z,2.33
2023-10-10T08:16:23.203Z,2.50
2023-10-10T08:18:49.881Z,2.33
2023-10-10T08:21:16.898Z,2.67
2023-10-10T08:23:44.431Z,2.22
2023-10-10T08:26:19.187Z,2.03
2023-10-10T08:28:46.717Z,2.33
2023-10-10T08:31:15.090Z,2.17
2023-10-10T08:33:46.176Z,2.30
2023-10-10T08:36:25.876Z,2.28
2023-10-10T08:38:59.728Z,1.98
2023-10-10T08:41:27.819Z,2.13
2023-10-10T08:43:59.310Z,2.35
2023-10-10T08:46:30.995Z,2.50
2023-10-10T08:49:01.728Z,2.30
2023-10-10T08:51:34.971Z,2.38
2023-10-10T08:54:11.725Z,3.17
2023-10-10T08:56:54.420Z,2.38
2023-10-10T08:59:21.097Z,1.95
2023-10-10T09:01:47.851Z,2.25
2023-10-10T09:04:20.457Z,3.55
2023-10-10T09:07:14.191Z,2.65
2023-10-10T09:09:41.627Z,3.08
2023-10-10T09:12:21.112Z,2.63
2023-10-10T09:14:53.798Z,2.30
2023-10-10T09:17:30.229Z,2.28
2023-10-10T09:20:01.597Z,2.13
2023-10-10T09:22:44.496Z,2.38
2023-10-10T09:25:20.316Z,2.58
2023-10-10T09:28:05.771Z,2.53
2023-10-10T09:30:46.710Z,2.20
2023-10-10T09:33:29.139Z,2.55
2023-10-10T09:36:00.468Z,2.55
2023-10-10T09:38:28.334Z,2.22
2023-10-10T09:41:11.885Z,3.28
2023-10-10T09:43:50.412Z,2.78
2023-10-10T09:46:25.143Z,2.67
2023-10-10T09:49:18.930Z,4.78
2023-10-10T09:51:57.352Z,3.28
2023-10-10T09:54:26.806Z,2.75
2023-10-10T09:56:55.118Z,2.75
2023-10-10T09:59:22.156Z,3.60
2023-10-10T10:01:49.447Z,2.60
2023-10-10T10:04:20.508Z,3.50
2023-10-10T10:07:07.624Z,3.08
2023-10-10T10:09:46.826Z,2.60
2023-10-10T10:12:54.737Z,3.50
2023-10-10T10:15:21.299Z,2.78
2023-10-10T10:17:58.038Z,3.00
2023-10-10T10:20:35.725Z,2.80
2023-10-10T10:23:02.658Z,2.60
2023-10-10T10:25:37.502Z,3.10
2023-10-10T10:28:12.324Z,3.17
2023-10-10T10:30:48.211Z,2.60
2023-10-10T10:33:16.247Z,3.05
2023-10-10T10:35:58.070Z,2.85
2023-10-10T10:38:25.274Z,2.90
2023-10-10T10:40:52.810Z,3.17
2023-10-10T10:43:22.523Z,2.40
2023-10-10T10:45:53.153Z,2.42
2023-10-10T10:48:35.357Z,2.50
2023-10-10T10:51:27.965Z,2.90
2023-10-10T10:54:02.352Z,2.42
2023-10-10T10:59:21.115Z,2.25
2023-10-10T11:01:58.912Z,2.10
2023-10-10T11:04:32.642Z,1.92
2023-10-10T11:07:08.918Z,2.50
2023-10-10T11:09:38.405Z,2.00
2023-10-10T11:12:09.624Z,1.88
2023-10-10T11:14:45.617Z,1.58
2023-10-10T11:17:19.729Z,1.60
2023-10-10T11:19:55.310Z,2.08
2023-10-10T11:22:40.781Z,1.70
2023-10-10T11:25:12.475Z,2.13
2023-10-10T11:27:45.569Z,2.00
2023-10-10T11:30:13.534Z,1.30
2023-10-10T11:32:50.216Z,1.30
2023-10-10T11:35:24.168Z,0.80
2023-10-10T11:38:00.556Z,0.95
2023-10-10T11:40:30.828Z,0.95
2023-10-10T11:42:58.119Z,1.13
2023-10-10T11:45:28.313Z,1.00
2023-10-10T11:48:02.184Z,1.38
2023-10-10T11:50:52.484Z,1.58
2023-10-10T11:53:21.429Z,1.02
2023-10-10T11:55:48.958Z,3.72
2023-10-10T11:58:18.841Z,1.30
2023-10-10T12:01:05.628Z,1.40
2023-10-10T12:03:42.984Z,1.13
2023-10-10T12:06:21.144Z,1.35
2023-10-10T12:08:51.964Z,2.00
2023-10-10T12:11:23.457Z,6.55
2023-10-10T12:13:51.945Z,4.80
2023-10-10T12:16:19.178Z,2.63
2023-10-10T12:18:53.980Z,1.60
2023-10-10T12:21:22.753Z,1.45
2023-10-10T12:23:51.534Z,1.40
2023-10-10T12:26:19.711Z,1.48
2023-10-10T12:28:49.630Z,1.10
2023-10-10T12:31:19.161Z,1.70
2023-10-10T12:33:55.280Z,1.40
2023-10-10T12:36:30.938Z,1.52
2023-10-10T12:38:59.588Z,1.65
2023-10-10T12:41:33.873Z,1.70
2023-10-10T12:44:00.744Z,1.30
2023-10-10T12:46:27.452Z,1.75
2023-10-10T12:48:54.242Z,2.05
2023-10-10T12:51:25.088Z,2.13
2023-10-10T12:54:01.342Z,1.67
2023-10-10T12:56:29.012Z,1.60
2023-10-10T12:59:05.196Z,1.80
2023-10-10T13:01:37.049Z,1.52
2023-10-10T13:04:09.235Z,1.70
2023-10-10T13:06:41.050Z,1.63
2023-10-10T13:09:09.897Z,1.70
2023-10-10T13:11:45.421Z,2.15
2023-10-10T13:14:25.979Z,2.00
2023-10-10T13:16:52.816Z,1.80
2023-10-10T13:19:22.009Z,1.85
2023-10-10T13:21:49.065Z,1.60
2023-10-10T13:24:16.675Z,1.85
2023-10-10T13:26:51.414Z,1.92
2023-10-10T13:29:18.737Z,1.75
2023-10-10T13:31:50.441Z,1.63
2023-10-10T13:34:19.785Z,1.95
2023-10-10T13:36:46.428Z,1.65
2023-10-10T13:39:17.344Z,2.97
2023-10-10T13:41:44.042Z,1.98
2023-10-10T13:44:12.261Z,1.80
2023-10-10T13:46:39.235Z,1.60
2023-10-10T13:49:09.971Z,1.95
2023-10-10T13:51:42.976Z,1.77
2023-10-10T13:54:09.724Z,1.52
2023-10-10T13:56:36.515Z,1.65
2023-10-10T13:59:03.705Z,1.65
2023-10-10T14:01:30.808Z,1.55
2023-10-10T14:04:05.332Z,1.77
2023-10-10T14:06:47.264Z,1.88
2023-10-10T14:09:25.928Z,1.67
2023-10-10T14:11:54.476Z,2.10
2023-10-10T14:14:22.141Z,1.90
2023-10-10T14:16:49.417Z,1.60
2023-10-10T14:19:16.158Z,2.08
2023-10-10T14:21:42.914Z,1.88
2023-10-10T14:24:09.867Z,2.00
2023-10-10T14:26:37.669Z,1.77
2023-10-10T14:29:08.752Z,2.20
2023-10-10T14:31:36.553Z,1.92
2023-10-10T14:34:04.145Z,1.75
2023-10-10T14:36:31.460Z,2.05
2023-10-10T14:39:01.181Z,1.73
2023-10-10T14:41:36.751Z,2.25
2023-10-10T14:44:05.056Z,2.10
2023-10-10T14:46:33.237Z,1.83
2023-10-10T14:49:07.457Z,2.25
2023-10-10T14:51:35.549Z,1.58
2023-10-10T14:54:13.039Z,1.98
2023-10-10T14:56:40.851Z,2.28
2023-10-10T14:59:08.165Z,2.03
2023-10-10T15:01:35.732Z,1.77
2023-10-10T15:04:06.412Z,1.92
2023-10-10T15:06:34.395Z,1.80
2023-10-10T15:09:01.530Z,2.00
2023-10-10T15:11:29.153Z,2.80
2023-10-10T15:13:58.774Z,3.53
2023-10-10T15:16:28.703Z,2.50
2023-10-10T15:18:55.636Z,2.47
2023-10-10T15:21:22.525Z,2.05
2023-10-10T15:23:49.342Z,1.85
2023-10-10T15:26:20.699Z,1.90
2023-10-10T15:28:47.739Z,2.45
2023-10-10T15:31:14.927Z,3.35
2023-10-10T15:33:44.722Z,2.70
2023-10-10T15:36:13.005Z,2.72
2023-10-10T15:38:39.934Z,2.45
2023-10-10T15:41:18.794Z,2.20
2023-10-10T15:43:48.262Z,2.60
2023-10-10T15:46:18.454Z,2.10
2023-10-10T15:48:49.830Z,1.98
2023-10-10T15:51:17.154Z,2.15
2023-10-10T15:53:43.921Z,4.10
2023-10-10T15:56:14.400Z,2.83
2023-10-10T15:58:53.778Z,3.17
2023-10-10T16:01:28.988Z,2.78
2023-10-10T16:03:56.691Z,3.08
2023-10-10T16:06:23.756Z,3.95
2023-10-10T16:08:51.362Z,3.30
2023-10-10T16:11:21.121Z,2.80
2023-10-10T16:13:49.700Z,2.00
2023-10-10T16:16:19.660Z,2.20
2023-10-10T16:18:49.572Z,2.60
2023-10-10T16:21:16.396Z,4.18
2023-10-10T16:23:46.677Z,2.38
2023-10-10T16:26:16.113Z,2.38
2023-10-10T16:28:42.879Z,2.83
2023-10-10T16:31:16.724Z,2.30
2023-10-10T16:33:43.889Z,2.20
2023-10-10T16:36:23.612Z,2.55
2023-10-10T16:38:55.788Z,3.15
2023-10-10T16:41:23.794Z,3.33
2023-10-10T16:44:00.797Z,2.55
2023-10-10T16:46:31.881Z,2.42
2023-10-10T16:48:58.921Z,2.90
2023-10-10T16:51:28.510Z,2.75
2023-10-10T16:53:56.560Z,3.28
2023-10-10T16:56:23.559Z,3.85
2023-10-10T16:58:50.975Z,3.30
2023-10-10T17:01:18.534Z,3.55
2023-10-10T17:03:46.387Z,3.35
2023-10-10T17:06:13.680Z,4.22
2023-10-10T17:08:40.693Z,4.75
2023-10-10T17:11:10.891Z,4.85
2023-10-10T17:13:40.690Z,10.30
2023-10-10T17:16:26.947Z,16.05
2023-10-10T17:18:54.838Z,11.45
2023-10-10T17:21:24.637Z,19.20
2023-10-10T17:23:51.637Z,19.55
2023-10-10T17:26:20.346Z,6.55
2023-10-10T17:28:49.384Z,14.15
2023-10-10T17:31:21.223Z,12.10
2023-10-10T17:33:48.211Z,10.13
2023-10-10T17:36:16.662Z,10.98
2023-10-10T17:38:45.104Z,8.00
2023-10-10T17:41:14.914Z,7.03
2023-10-10T17:43:44.534Z,3.50
2023-10-10T17:46:23.405Z,3.25
2023-10-10T17:48:56.243Z,5.32
2023-10-10T17:51:25.256Z,3.25
2023-10-10T17:53:55.850Z,5.50
2023-10-10T17:56:24.941Z,7.95
2023-10-10T17:58:51.846Z,6.57
2023-10-10T18:01:21.298Z,5.88
2023-10-10T18:03:49.742Z,4.85
2023-10-10T18:06:40.457Z,8.00
2023-10-10T18:09:10.244Z,5.38
2023-10-10T18:11:37.979Z,5.25
2023-10-10T18:14:06.637Z,5.32
2023-10-10T18:16:35.436Z,7.15
2023-10-10T18:19:02.888Z,7.07
2023-10-10T18:21:31.579Z,7.03
2023-10-10T18:23:58.830Z,8.18
2023-10-10T18:26:25.836Z,7.00
2023-10-10T18:28:53.720Z,7.00
2023-10-10T18:31:25.948Z,7.28
2023-10-10T18:33:55.676Z,6.50
2023-10-10T18:36:23.902Z,8.15
2023-10-10T18:38:52.453Z,7.88
2023-10-10T18:41:24.186Z,6.75
2023-10-10T18:43:51.692Z,7.05
2023-10-10T18:46:18.474Z,7.57
2023-10-10T18:48:46.709Z,6.80
2023-10-10T18:51:14.291Z,7.53
2023-10-10T18:53:41.994Z,8.25
2023-10-10T18:56:09.472Z,7.95
2023-10-10T18:58:40.446Z,6.70
2023-10-10T19:01:11.751Z,5.32
2023-10-10T19:03:48.228Z,4.57
2023-10-10T19:06:16.015Z,4.47
2023-10-10T19:08:45.655Z,4.53
2023-10-10T19:11:16.285Z,5.85
2023-10-10T19:13:50.579Z,3.70
2023-10-10T19:16:18.485Z,4.45
2023-10-10T19:18:49.005Z,4.10
2023-10-10T19:21:16.945Z,3.70
2023-10-10T19:23:44.960Z,4.68
2023-10-10T19:26:13.833Z,3.28
2023-10-10T19:28:42.948Z,3.20
2023-10-10T19:31:09.759Z,3.22
2023-10-10T19:33:36.737Z,2.22
2023-10-10T19:36:03.711Z,2.58
2023-10-10T19:38:33.141Z,10.48
2023-10-10T19:41:07.474Z,3.17
2023-10-10T19:43:37.571Z,2.40
2023-10-10T19:46:05.781Z,3.08
2023-10-10T19:48:32.678Z,4.65
2023-10-10T19:51:06.055Z,6.03
2023-10-10T19:53:34.021Z,6.50
2023-10-10T19:56:01.131Z,6.45
2023-10-10T19:58:31.604Z,5.72
2023-10-10T20:01:00.585Z,5.80
2023-10-10T20:03:29.484Z,5.88
2023-10-10T20:05:56.646Z,4.18
2023-10-10T20:08:23.396Z,4.38
2023-10-10T20:10:50.292Z,3.92
2023-10-10T20:13:18.402Z,3.10
2023-10-10T20:15:45.481Z,2.60
2023-10-10T20:18:12.563Z,2.55
2023-10-10T20:20:42.802Z,4.38
2023-10-10T20:23:10.129Z,4.20
2023-10-10T20:25:41.086Z,4.20
2023-10-10T20:28:08.657Z,3.88
2023-10-10T20:30:38.101Z,4.88
2023-10-10T20:33:06.079Z,4.93
2023-10-10T20:35:33.515Z,4.85
2023-10-10T20:38:07.454Z,4.25
2023-10-10T20:40:35.084Z,4.22
2023-10-10T20:43:03.077Z,4.45
2023-10-10T20:45:30.280Z,4.45
2023-10-10T20:47:57.666Z,4.20
2023-10-10T20:50:32.789Z,4.45
2023-10-10T20:53:00.727Z,4.88
2023-10-10T20:55:28.821Z,4.97
2023-10-10T20:57:57.513Z,4.20
2023-10-10T21:00:25.985Z,4.65
2023-10-10T21:02:54.198Z,4.00
2023-10-10T21:05:25.676Z,4.75
2023-10-10T21:07:52.849Z,4.03
2023-10-10T21:10:20.549Z,3.53
2023-10-10T21:12:47.870Z,3.80
2023-10-10T21:15:16.471Z,3.15
2023-10-10T21:17:43.985Z,3.30
2023-10-10T21:20:11.551Z,3.67
2023-10-10T21:22:41.689Z,3.10
2023-10-10T21:25:09.097Z,2.95
2023-10-10T21:27:36.477Z,3.25
2023-10-10T21:30:03.535Z,3.10
2023-10-10T21:32:30.414Z,3.08
2023-10-10T21:34:57.335Z,3.10
2023-10-10T21:37:24.513Z,3.58
2023-10-10T21:39:51.547Z,3.13
2023-10-10T21:42:20.512Z,3.70
2023-10-10T21:44:47.216Z,3.80
2023-10-10T21:47:15.708Z,3.25
2023-10-10T21:49:45.586Z,3.42
2023-10-10T21:52:12.337Z,3.65
2023-10-10T21:54:39.038Z,3.35
2023-10-10T21:57:05.702Z,4.05
2023-10-10T21:59:35.500Z,3.08
2023-10-10T22:02:02.769Z,3.25
2023-10-10T22:04:29.676Z,3.28
2023-10-10T22:06:56.506Z,3.10
2023-10-10T22:09:23.409Z,3.35
2023-10-10T22:11:50.285Z,3.25
2023-10-10T22:14:17.064Z,3.40
2023-10-10T22:16:44.825Z,3.05
2023-10-10T22:19:12.368Z,3.83
2023-10-10T22:21:40.547Z,3.67
2023-10-10T22:24:07.998Z,4.13
2023-10-10T22:26:37.901Z,3.40
2023-10-10T22:29:05.310Z,3.10
2023-10-10T22:31:32.747Z,3.85
2023-10-10T22:33:59.972Z,4.00
2023-10-10T22:36:28.920Z,3.75
2023-10-10T22:38:55.780Z,4.10
2023-10-10T22:41:22.616Z,4.55
2023-10-10T22:43:49.901Z,4.65
2023-10-10T22:46:16.822Z,4.20
2023-10-10T22:48:44.536Z,4.18
2023-10-10T22:51:14.081Z,3.05
2023-10-10T22:53:41.330Z,3.60
2023-10-10T22:56:12.817Z,3.17
2023-10-10T22:58:43.407Z,3.40
2023-10-10T23:01:16.074Z,3.00
2023-10-10T23:03:43.610Z,3.47
2023-10-10T23:06:13.450Z,3.38
2023-10-10T23:08:40.771Z,4.30
2023-10-10T23:11:09.534Z,3.70
2023-10-10T23:13:36.224Z,3.20
2023-10-10T23:16:02.999Z,3.25
2023-10-10T23:18:30.328Z,3.10
2023-10-10T23:20:57.084Z,2.60
2023-10-10T23:23:24.762Z,5.47
2023-10-10T23:25:52.272Z,5.32
2023-10-10T23:28:19.096Z,6.53
2023-10-10T23:30:45.812Z,7.70
2023-10-10T23:33:13.897Z,6.80
2023-10-10T23:35:41.545Z,6.93
2023-10-10T23:38:09.496Z,6.68
2023-10-10T23:40:45.675Z,6.43
2023-10-10T23:43:20.004Z,6.60
2023-10-10T23:45:47.709Z,5.45
2023-10-10T23:48:17.646Z,6.05
2023-10-10T23:50:45.236Z,6.63
2023-10-10T23:53:15.291Z,5.90
2023-10-10T23:55:42.490Z,5.35
2023-10-10T23:58:13.079Z,5.32
